createdAt,value
2022-08-22T00:00:20.865Z,6.60
2022-08-22T00:02:46.876Z,6.60
2022-08-22T00:02:59.281Z,5.70
2022-08-22T00:06:02.340Z,6.20
2022-08-22T00:08:43.106Z,6.30
2022-08-22T00:11:26.017Z,6.40
2022-08-22T00:14:02.379Z,6.10
2022-08-22T00:16:42.721Z,6.30
2022-08-22T00:19:25.673Z,6.50
2022-08-22T00:22:03.263Z,6.80
2022-08-22T00:24:41.931Z,6.50
2022-08-22T00:27:21.168Z,6.60
2022-08-22T00:29:56.032Z,5.80
2022-08-22T00:32:33.797Z,6.70
2022-08-22T00:35:09.520Z,6.30
2022-08-22T00:37:45.551Z,6.20
2022-08-22T00:40:31.326Z,6.60
2022-08-22T00:43:27.099Z,6.30
2022-08-22T00:46:25.788Z,6.70
2022-08-22T00:49:18.244Z,6.30
2022-08-22T00:52:26.879Z,6.20
2022-08-22T00:55:18.795Z,6.00
2022-08-22T00:58:07.721Z,6.30
2022-08-22T01:00:45.187Z,6.50
2022-08-22T01:03:52.838Z,6.50
2022-08-22T01:06:34.252Z,6.80
2022-08-22T01:09:17.894Z,7.10
2022-08-22T01:12:17.206Z,7.10
2022-08-22T01:14:55.093Z,7.30
2022-08-22T01:17:56.238Z,7.90
2022-08-22T01:20:59.705Z,7.20
2022-08-22T01:24:02.854Z,7.20
2022-08-22T01:27:30.048Z,7.70
2022-08-22T01:30:19.869Z,7.50
2022-08-22T01:33:25.290Z,7.30
2022-08-22T01:36:39.914Z,7.10
2022-08-22T01:39:35.782Z,8.20
2022-08-22T01:42:42.401Z,8.60
2022-08-22T01:45:36.648Z,8.30
2022-08-22T01:48:14.196Z,8.30
2022-08-22T01:50:53.496Z,8.00
2022-08-22T01:53:32.125Z,8.50
2022-08-22T01:56:11.521Z,8.40
2022-08-22T01:58:56.492Z,7.90
2022-08-22T02:01:38.227Z,8.10
2022-08-22T02:04:19.159Z,8.20
2022-08-22T02:07:02.512Z,7.90
2022-08-22T02:09:43.623Z,8.00
2022-08-22T02:12:34.242Z,8.70
2022-08-22T02:15:18.363Z,8.00
2022-08-22T02:18:21.025Z,8.10
2022-08-22T02:21:10.589Z,8.30
2022-08-22T02:23:52.272Z,8.70
2022-08-22T02:26:39.251Z,8.40
2022-08-22T02:29:16.517Z,7.70
2022-08-22T02:31:54.598Z,8.20
2022-08-22T02:34:38.470Z,7.70
2022-08-22T02:37:17.149Z,8.50
2022-08-22T02:39:57.352Z,7.80
2022-08-22T02:42:38.670Z,7.60
2022-08-22T02:45:23.292Z,7.70
2022-08-22T02:48:02.489Z,7.50
2022-08-22T02:50:42.917Z,7.10
2022-08-22T02:53:19.033Z,6.90
2022-08-22T02:56:00.579Z,6.90
2022-08-22T02:58:41.002Z,7.80
2022-08-22T03:01:25.609Z,7.50
2022-08-22T03:04:28.798Z,7.60
2022-08-22T03:07:17.947Z,7.00
2022-08-22T03:09:58.041Z,7.30
2022-08-22T03:12:39.611Z,6.60
2022-08-22T03:15:21.138Z,7.00
2022-08-22T03:17:57.709Z,7.30
2022-08-22T03:20:47.020Z,7.10
2022-08-22T03:23:34.904Z,7.80
2022-08-22T03:26:14.584Z,7.10
2022-08-22T03:28:58.984Z,7.00
2022-08-22T03:31:36.827Z,7.20
2022-08-22T03:34:28.511Z,6.80
2022-08-22T03:37:16.457Z,7.20
2022-08-22T03:39:59.405Z,6.90
2022-08-22T03:43:00.420Z,6.90
2022-08-22T03:45:55.785Z,7.90
2022-08-22T03:48:52.693Z,7.60
2022-08-22T03:51:49.464Z,7.40
2022-08-22T03:54:47.757Z,7.20
2022-08-22T03:58:00.028Z,7.70
2022-08-22T04:00:55.917Z,7.80
2022-08-22T04:04:00.181Z,7.20
2022-08-22T04:06:56.638Z,7.00
2022-08-22T04:09:56.846Z,7.40
2022-08-22T04:12:48.905Z,7.60
2022-08-22T04:15:33.793Z,8.20
2022-08-22T04:18:48.050Z,7.80
2022-08-22T04:21:36.805Z,7.60
2022-08-22T04:24:40.262Z,8.10
2022-08-22T04:27:22.950Z,7.80
2022-08-22T04:30:00.445Z,8.10
2022-08-22T04:32:38.845Z,8.00
2022-08-22T04:35:14.301Z,8.50
2022-08-22T04:37:51.265Z,8.50
2022-08-22T04:40:28.704Z,7.50
2022-08-22T04:43:06.440Z,8.00
2022-08-22T04:45:42.916Z,8.00
2022-08-22T04:48:23.026Z,8.00
2022-08-22T04:50:59.810Z,8.60
2022-08-22T04:53:49.034Z,7.50
2022-08-22T04:56:26.713Z,7.40
2022-08-22T04:59:02.949Z,6.80
2022-08-22T05:01:47.794Z,7.00
2022-08-22T05:06:55.192Z,6.60
2022-08-22T05:09:30.820Z,6.70
2022-08-22T05:12:07.676Z,7.00
2022-08-22T05:14:42.673Z,6.40
2022-08-22T05:17:23.691Z,6.60
2022-08-22T05:19:58.456Z,6.10
2022-08-22T05:22:34.539Z,6.50
2022-08-22T05:25:11.353Z,7.10
2022-08-22T05:27:49.724Z,6.40
2022-08-22T05:30:29.524Z,7.00
2022-08-22T05:33:07.876Z,6.40
2022-08-22T05:35:48.585Z,6.90
2022-08-22T05:38:32.141Z,6.60
2022-08-22T05:41:08.194Z,6.50
2022-08-22T05:43:44.827Z,6.90
2022-08-22T05:46:26.895Z,7.00
2022-08-22T05:49:02.741Z,7.10
2022-08-22T05:51:45.785Z,7.10
2022-08-22T05:54:20.492Z,6.50
2022-08-22T05:56:56.155Z,6.10
2022-08-22T05:59:31.339Z,6.40
2022-08-22T06:02:08.660Z,7.00
2022-08-22T06:04:47.839Z,6.50
2022-08-22T06:07:25.605Z,6.20
2022-08-22T06:10:14.841Z,6.60
2022-08-22T06:12:55.480Z,6.50
2022-08-22T06:15:36.440Z,5.60
2022-08-22T06:18:13.420Z,6.30
2022-08-22T06:20:50.002Z,6.10
2022-08-22T06:23:26.408Z,6.30
2022-08-22T06:26:02.005Z,6.20
2022-08-22T06:28:55.178Z,6.80
2022-08-22T06:31:31.530Z,6.10
2022-08-22T06:34:13.096Z,6.10
2022-08-22T06:36:49.886Z,6.00
2022-08-22T06:39:25.009Z,6.50
2022-08-22T06:42:01.593Z,5.80
2022-08-22T06:44:36.555Z,6.70
2022-08-22T06:47:10.653Z,6.60
2022-08-22T06:49:44.571Z,6.40
2022-08-22T06:52:23.750Z,5.90
2022-08-22T06:55:01.918Z,5.70
2022-08-22T06:57:38.766Z,6.20
2022-08-22T07:00:15.319Z,6.00
2022-08-22T07:02:50.762Z,5.50
2022-08-22T07:05:28.312Z,6.10
2022-08-22T07:08:00.339Z,5.50
2022-08-22T07:10:32.154Z,6.10
2022-08-22T07:13:04.239Z,6.30
2022-08-22T07:15:38.816Z,6.50
2022-08-22T07:18:18.444Z,5.80
2022-08-22T07:20:55.022Z,5.90
2022-08-22T07:23:35.024Z,5.70
2022-08-22T07:26:24.327Z,5.90
2022-08-22T07:29:00.829Z,6.40
2022-08-22T07:31:39.489Z,5.80
2022-08-22T07:34:24.889Z,6.10
2022-08-22T07:37:03.675Z,6.30
2022-08-22T07:39:43.185Z,6.40
2022-08-22T07:42:19.542Z,6.40
2022-08-22T07:45:08.499Z,6.60
2022-08-22T07:47:59.565Z,5.60
2022-08-22T07:50:33.997Z,5.70
2022-08-22T07:53:15.641Z,6.20
2022-08-22T07:55:49.645Z,5.80
2022-08-22T08:00:53.218Z,6.00
2022-08-22T08:03:28.292Z,5.90
2022-08-22T08:06:02.138Z,6.00
2022-08-22T08:08:39.640Z,5.80
2022-08-22T08:11:13.824Z,6.30
2022-08-22T08:16:24.982Z,5.70
2022-08-22T08:19:00.094Z,5.70
2022-08-22T08:21:38.017Z,6.20
2022-08-22T08:24:17.350Z,6.50
2022-08-22T08:27:06.883Z,6.00
2022-08-22T08:29:38.947Z,6.50
2022-08-22T08:32:14.185Z,6.00
2022-08-22T08:34:46.818Z,6.50
2022-08-22T08:37:23.842Z,6.00
2022-08-22T08:39:58.636Z,6.60
2022-08-22T08:43:10.957Z,6.40
2022-08-22T08:45:59.383Z,6.40
2022-08-22T08:49:17.021Z,8.60
2022-08-22T08:52:24.448Z,7.90
2022-08-22T08:55:19.620Z,6.70
2022-08-22T08:58:06.967Z,7.10
2022-08-22T09:00:57.453Z,6.40
2022-08-22T09:03:57.012Z,6.40
2022-08-22T09:06:59.256Z,6.50
2022-08-22T09:09:52.336Z,6.50
2022-08-22T09:13:12.258Z,6.40
2022-08-22T09:16:09.196Z,6.70
2022-08-22T09:19:03.205Z,6.10
2022-08-22T09:22:01.423Z,6.10
2022-08-22T09:25:06.518Z,7.90
2022-08-22T09:30:15.684Z,5.90
2022-08-22T09:32:59.481Z,6.70
2022-08-22T09:35:41.851Z,6.00
2022-08-22T09:38:29.722Z,6.00
2022-08-22T09:41:10.354Z,6.30
2022-08-22T09:43:48.720Z,6.50
2022-08-22T09:46:31.477Z,6.50
2022-08-22T09:49:14.844Z,6.60
2022-08-22T09:52:03.668Z,5.50
2022-08-22T09:54:42.147Z,5.80
2022-08-22T09:57:35.737Z,6.20
2022-08-22T10:00:22.466Z,6.10
2022-08-22T10:03:19.056Z,5.80
2022-08-22T10:06:00.763Z,6.70
2022-08-22T10:08:52.373Z,6.80
2022-08-22T10:11:29.513Z,6.10
2022-08-22T10:14:10.128Z,6.10
2022-08-22T10:17:01.032Z,6.60
2022-08-22T10:19:38.749Z,6.20
2022-08-22T10:22:39.547Z,5.50
2022-08-22T10:25:33.388Z,6.30
2022-08-22T10:28:32.277Z,5.90
2022-08-22T10:31:24.057Z,6.00
2022-08-22T10:34:05.414Z,6.00
2022-08-22T10:36:50.412Z,6.60
2022-08-22T10:39:27.109Z,5.90
2022-08-22T10:42:28.134Z,6.50
2022-08-22T10:45:23.598Z,6.40
2022-08-22T10:48:37.263Z,5.90
2022-08-22T10:51:21.642Z,6.30
2022-08-22T10:54:06.751Z,5.70
2022-08-22T10:56:45.090Z,5.60
2022-08-22T10:59:38.326Z,5.80
2022-08-22T11:02:25.125Z,6.30
2022-08-22T11:05:16.263Z,6.40
2022-08-22T11:07:50.667Z,5.90
2022-08-22T11:10:36.357Z,6.10
2022-08-22T11:13:18.293Z,5.30
2022-08-22T11:16:04.410Z,6.00
2022-08-22T11:19:04.880Z,5.90
2022-08-22T11:21:59.605Z,6.20
2022-08-22T11:25:15.504Z,5.70
2022-08-22T11:28:28.863Z,6.00
2022-08-22T11:31:11.263Z,5.60
2022-08-22T11:33:53.391Z,5.60
2022-08-22T11:36:37.441Z,5.00
2022-08-22T11:39:27.897Z,5.50
2022-08-22T11:42:08.419Z,5.50
2022-08-22T11:44:50.475Z,5.70
2022-08-22T11:47:26.808Z,5.30
2022-08-22T11:50:13.505Z,5.30
2022-08-22T11:53:14.716Z,5.30
2022-08-22T11:55:55.918Z,4.50
2022-08-22T11:58:34.654Z,4.60
2022-08-22T12:01:17.152Z,4.70
2022-08-22T12:04:04.236Z,4.80
2022-08-22T12:06:47.901Z,4.70
2022-08-22T12:09:39.184Z,4.60
2022-08-22T12:12:36.478Z,4.80
2022-08-22T12:15:15.086Z,4.60
2022-08-22T12:18:15.338Z,4.80
2022-08-22T12:21:24.196Z,4.40
2022-08-22T12:24:19.226Z,4.60
2022-08-22T12:27:13.310Z,4.50
2022-08-22T12:30:02.470Z,4.20
2022-08-22T12:33:21.939Z,4.60
2022-08-22T12:36:06.567Z,4.80
2022-08-22T12:39:01.053Z,5.00
2022-08-22T12:42:16.012Z,4.40
2022-08-22T12:45:08.483Z,4.90
2022-08-22T12:47:55.651Z,5.40
2022-08-22T12:50:39.963Z,5.10
2022-08-22T12:53:32.719Z,5.00
2022-08-22T12:56:26.374Z,4.80
2022-08-22T12:59:13.377Z,4.80
2022-08-22T13:01:51.734Z,5.30
2022-08-22T13:04:33.194Z,4.70
2022-08-22T13:07:24.385Z,5.90
2022-08-22T13:09:59.227Z,4.50
2022-08-22T13:12:38.164Z,5.00
2022-08-22T13:15:24.311Z,4.80
2022-08-22T13:18:08.681Z,4.50
2022-08-22T13:20:51.505Z,4.80
2022-08-22T13:23:27.702Z,4.90
2022-08-22T13:26:10.642Z,5.30
2022-08-22T13:29:04.283Z,5.30
2022-08-22T13:31:46.125Z,5.80
2022-08-22T13:34:32.087Z,5.60
2022-08-22T13:37:10.119Z,5.60
2022-08-22T13:39:49.149Z,4.90
2022-08-22T13:42:30.017Z,5.80
2022-08-22T13:45:06.585Z,5.20
2022-08-22T13:47:48.238Z,5.60
2022-08-22T13:50:24.551Z,5.40
2022-08-22T13:53:02.048Z,6.30
2022-08-22T13:55:38.766Z,5.60
2022-08-22T13:58:27.636Z,4.80
2022-08-22T14:03:56.665Z,4.90
2022-08-22T14:06:41.190Z,5.60
2022-08-22T14:09:32.463Z,6.20
2022-08-22T14:12:15.394Z,5.10
2022-08-22T14:14:56.013Z,5.10
2022-08-22T14:17:33.647Z,4.90
2022-08-22T14:20:12.289Z,4.90
2022-08-22T14:22:57.282Z,4.80
2022-08-22T14:25:36.180Z,4.80
2022-08-22T14:28:11.330Z,5.00
2022-08-22T14:31:00.702Z,4.70
2022-08-22T14:33:39.764Z,5.10
2022-08-22T14:36:22.000Z,5.20
2022-08-22T14:38:57.897Z,4.80
2022-08-22T14:41:55.666Z,4.70
2022-08-22T14:44:32.914Z,5.10
2022-08-22T14:47:30.337Z,4.90
2022-08-22T14:50:02.927Z,5.10
2022-08-22T14:52:40.646Z,4.90
2022-08-22T14:55:26.410Z,4.80
2022-08-22T14:58:03.451Z,4.90
2022-08-22T15:00:41.962Z,4.60
2022-08-22T15:03:25.309Z,4.60
2022-08-22T15:06:01.405Z,4.70
2022-08-22T15:08:37.996Z,4.70
2022-08-22T15:11:24.550Z,4.70
2022-08-22T15:14:13.455Z,5.60
2022-08-22T15:16:48.003Z,4.80
2022-08-22T15:19:30.035Z,5.30
2022-08-22T15:22:16.514Z,5.10
2022-08-22T15:24:54.971Z,4.80
2022-08-22T15:27:30.882Z,5.10
2022-08-22T15:30:20.573Z,5.00
2022-08-22T15:32:53.477Z,5.00
2022-08-22T15:35:38.832Z,5.10
2022-08-22T15:38:28.818Z,5.00
2022-08-22T15:41:32.588Z,5.30
2022-08-22T15:44:14.782Z,5.50
2022-08-22T15:47:06.227Z,4.90
2022-08-22T15:49:54.316Z,5.90
2022-08-22T15:52:32.266Z,5.30
2022-08-22T15:55:25.771Z,5.40
2022-08-22T15:58:12.815Z,5.30
2022-08-22T16:01:05.036Z,4.90
2022-08-22T16:04:00.399Z,5.40
2022-08-22T16:06:49.000Z,5.10
2022-08-22T16:09:37.833Z,5.10
2022-08-22T16:12:15.448Z,5.30
2022-08-22T16:14:53.785Z,5.60
2022-08-22T16:17:44.051Z,5.50
2022-08-22T16:20:51.294Z,5.70
2022-08-22T16:23:23.296Z,5.70
2022-08-22T16:26:15.856Z,5.00
2022-08-22T16:29:02.402Z,5.10
2022-08-22T16:31:36.454Z,5.40
2022-08-22T16:34:26.238Z,5.70
2022-08-22T16:37:38.058Z,5.40
2022-08-22T16:40:17.182Z,5.30
2022-08-22T16:43:11.451Z,5.30
2022-08-22T16:45:45.849Z,5.50
2022-08-22T16:48:33.416Z,5.40
2022-08-22T16:51:19.512Z,5.10
2022-08-22T16:54:14.708Z,5.40
2022-08-22T16:57:09.402Z,5.10
2022-08-22T16:59:59.526Z,5.30
2022-08-22T17:03:02.939Z,5.10
2022-08-22T17:05:48.964Z,4.60
2022-08-22T17:08:36.810Z,4.30
2022-08-22T17:11:24.532Z,4.70
2022-08-22T17:14:12.792Z,4.90
2022-08-22T17:17:05.702Z,4.60
2022-08-22T17:19:50.798Z,5.70
2022-08-22T17:22:33.663Z,5.00
2022-08-22T17:25:19.618Z,4.70
2022-08-22T17:28:04.142Z,4.90
2022-08-22T17:30:43.485Z,4.90
2022-08-22T17:33:31.099Z,5.00
2022-08-22T17:36:26.872Z,4.70
2022-08-22T17:39:21.241Z,4.60
2022-08-22T17:42:02.049Z,4.80
2022-08-22T17:44:47.348Z,4.70
2022-08-22T17:47:23.427Z,4.70
2022-08-22T17:50:03.682Z,4.70
2022-08-22T17:52:46.896Z,5.10
2022-08-22T17:55:23.630Z,5.00
2022-08-22T17:57:59.355Z,4.60
2022-08-22T18:00:35.150Z,4.60
2022-08-22T18:03:16.383Z,4.70
2022-08-22T18:05:54.409Z,5.10
2022-08-22T18:09:33.392Z,5.00
2022-08-22T18:11:31.984Z,5.10
2022-08-22T18:14:23.708Z,5.20
2022-08-22T18:16:56.948Z,5.00
2022-08-22T18:19:47.113Z,5.00
2022-08-22T18:22:29.427Z,5.50
2022-08-22T18:25:09.344Z,6.10
2022-08-22T18:27:49.365Z,5.40
2022-08-22T18:30:24.886Z,5.70
2022-08-22T18:33:05.104Z,5.60
2022-08-22T18:35:50.005Z,5.00
2022-08-22T18:38:33.029Z,5.50
2022-08-22T18:41:13.448Z,5.30
2022-08-22T18:43:49.522Z,5.80
2022-08-22T18:46:43.603Z,5.20
2022-08-22T18:49:30.311Z,5.50
2022-08-22T18:52:32.376Z,5.60
2022-08-22T18:55:22.853Z,5.60
2022-08-22T18:58:23.049Z,5.60
2022-08-22T19:01:06.281Z,5.60
2022-08-22T19:04:02.151Z,5.60
2022-08-22T19:07:04.159Z,5.50
2022-08-22T19:10:08.065Z,5.70
2022-08-22T19:12:59.070Z,5.90
2022-08-22T19:15:49.171Z,6.00
2022-08-22T19:18:40.548Z,5.60
2022-08-22T19:21:45.999Z,5.90
2022-08-22T19:24:44.502Z,5.50
2022-08-22T19:27:31.724Z,5.30
2022-08-22T19:30:08.698Z,6.20
2022-08-22T19:33:08.336Z,5.50
2022-08-22T19:35:55.380Z,5.70
2022-08-22T19:38:55.587Z,6.00
2022-08-22T19:41:53.106Z,6.00
2022-08-22T19:44:40.131Z,5.90
2022-08-22T19:47:28.970Z,5.70
2022-08-22T19:50:05.608Z,5.90
2022-08-22T19:52:59.676Z,6.30
2022-08-22T19:55:46.105Z,5.70
2022-08-22T19:58:32.047Z,5.80
2022-08-22T20:01:11.187Z,5.60
2022-08-22T20:03:53.843Z,5.90
2022-08-22T20:06:44.272Z,6.10
2022-08-22T20:09:38.482Z,6.50
2022-08-22T20:12:17.821Z,5.90
2022-08-22T20:14:51.856Z,5.90
2022-08-22T20:18:11.235Z,6.20
2022-08-22T20:20:57.445Z,5.90
2022-08-22T20:23:33.197Z,6.10
2022-08-22T20:26:05.601Z,6.20
2022-08-22T20:28:50.325Z,5.40
2022-08-22T20:31:27.620Z,5.70
2022-08-22T20:34:04.085Z,6.00
2022-08-22T20:36:36.447Z,6.30
2022-08-22T20:39:12.405Z,5.80
2022-08-22T20:41:48.100Z,6.40
2022-08-22T20:44:22.909Z,6.10
2022-08-22T20:46:58.818Z,5.70
2022-08-22T20:49:34.393Z,5.60
2022-08-22T20:52:08.901Z,5.60
2022-08-22T20:54:42.724Z,5.80
2022-08-22T20:57:18.507Z,6.10
2022-08-22T20:59:57.042Z,6.00
2022-08-22T21:02:36.191Z,6.60
2022-08-22T21:05:18.690Z,5.90
2022-08-22T21:08:02.706Z,6.40
2022-08-22T21:10:56.136Z,6.60
2022-08-22T21:13:29.381Z,6.40
2022-08-22T21:16:03.435Z,5.90
2022-08-22T21:18:38.508Z,6.70
2022-08-22T21:21:17.600Z,6.30
2022-08-22T21:23:54.707Z,5.90
2022-08-22T21:26:32.386Z,6.50
2022-08-22T21:29:07.399Z,6.20
2022-08-22T21:31:46.194Z,6.70
2022-08-22T21:34:20.872Z,6.80
2022-08-22T21:36:54.849Z,6.10
2022-08-22T21:39:30.450Z,6.20
2022-08-22T21:42:22.601Z,6.60
2022-08-22T21:45:01.221Z,6.80
2022-08-22T21:47:36.037Z,6.20
2022-08-22T21:50:15.992Z,6.50
2022-08-22T21:53:04.691Z,6.10
2022-08-22T21:55:44.721Z,5.90
2022-08-22T21:58:36.649Z,6.60
2022-08-22T22:01:30.983Z,6.50
2022-08-22T22:04:03.258Z,6.40
2022-08-22T22:06:34.831Z,6.20
2022-08-22T22:09:06.828Z,6.40
2022-08-22T22:11:38.256Z,6.70
2022-08-22T22:14:09.820Z,6.30
2022-08-22T22:16:41.291Z,6.40
2022-08-22T22:19:12.780Z,6.80
2022-08-22T22:21:44.861Z,6.00
2022-08-22T22:24:16.281Z,6.30
2022-08-22T22:26:47.731Z,6.60
2022-08-22T22:29:19.231Z,6.80
2022-08-22T22:31:50.519Z,6.90
2022-08-22T22:34:23.421Z,6.90
2022-08-22T22:36:55.143Z,6.40
2022-08-22T22:39:27.207Z,6.80
2022-08-22T22:41:58.811Z,6.50
2022-08-22T22:44:30.223Z,6.30
2022-08-22T22:47:03.940Z,6.70
2022-08-22T22:49:35.880Z,6.70
2022-08-22T22:52:11.674Z,6.10
2022-08-22T22:54:44.235Z,7.10
2022-08-22T22:57:19.876Z,6.50
2022-08-22T22:59:57.331Z,6.50
2022-08-22T23:02:28.767Z,6.20
2022-08-22T23:05:00.705Z,6.50
2022-08-22T23:07:33.823Z,6.70
2022-08-22T23:10:07.385Z,5.90
2022-08-22T23:12:39.787Z,6.30
2022-08-22T23:15:12.505Z,7.00
2022-08-22T23:17:44.099Z,6.20
2022-08-22T23:20:16.405Z,7.20
2022-08-22T23:22:49.518Z,7.20
2022-08-22T23:25:21.955Z,6.40
2022-08-22T23:27:53.446Z,6.50
2022-08-22T23:30:25.198Z,6.80
2022-08-22T23:32:57.064Z,6.70
2022-08-22T23:35:30.737Z,6.80
2022-08-22T23:38:02.228Z,6.30
2022-08-22T23:40:33.651Z,6.20
2022-08-22T23:43:05.199Z,5.80
2022-08-22T23:45:36.494Z,7.20
2022-08-22T23:48:09.004Z,6.40
2022-08-22T23:50:40.382Z,6.80
2022-08-22T23:53:13.450Z,6.70
2022-08-22T23:55:44.762Z,6.80
2022-08-22T23:58:16.436Z,7.00
